aviador You're here:

LFOH Decoded Metar

LE HAVRE in FRANCE
Report Time2018-02-21 05:00:00
UTC Time2018-02-21 05:22:42
Flight Rules ifr IFR
Wind040° at 10 kt
W.Decomp.*RWY 04: 10.0 kt HW 0.2 kt RCW
W.Rank040° ranks 31
Current wind is above 040° avg. (7.7)
Visibility4600 m
Phenomena:Mist
Clouds:N/A
Expected CloudBase > 800 ft AGL from Temp-Dew spread
CeilingNone
Temp02°C (ISA -12)
Dew Point00°C (87% RH)
AAT-3.6°C
QNH1023 hPa
Density Alt-1,417 ft
Elevation338 ft
Report Wrong Elevation
Raw Report
LFOH 210500Z AUTO 04010KT 4600 BR NSC 02/M00 Q1023=

Extra information for LFOH:More info

Metar Taf Metar & Taf Last 4 Metars F.Rules Stats Wind Profile Meteogram Temp Stats Airport Information Weather charts Add Link Nearby VenuesMetar ALERT Operation Metar Decoded Social comments